createdAt,value
2018-04-27T00:00:26.402Z,8.00
2018-04-27T00:02:54.115Z,8.00
2018-04-27T00:05:21.619Z,8.00
2018-04-27T00:07:49.118Z,7.90
2018-04-27T00:10:16.621Z,7.90
2018-04-27T00:12:44.890Z,8.00
2018-04-27T00:15:12.406Z,8.00
2018-04-27T00:17:40.038Z,8.00
2018-04-27T00:20:07.717Z,8.00
2018-04-27T00:22:35.262Z,7.90
2018-04-27T00:25:03.674Z,7.90
2018-04-27T00:27:31.394Z,7.90
2018-04-27T00:29:58.905Z,7.90
2018-04-27T00:32:26.405Z,7.90
2018-04-27T00:34:54.094Z,7.90
2018-04-27T00:37:21.873Z,7.90
2018-04-27T00:39:49.647Z,7.90
2018-04-27T00:42:17.413Z,8.00
2018-04-27T00:44:45.169Z,8.00
2018-04-27T00:47:13.005Z,8.00
2018-04-27T00:49:40.439Z,8.00
2018-04-27T00:52:08.165Z,8.00
2018-04-27T00:54:35.794Z,8.00
2018-04-27T00:57:03.378Z,8.00
2018-04-27T00:59:30.886Z,8.00
2018-04-27T01:01:58.611Z,8.00
2018-04-27T01:04:26.133Z,8.10
2018-04-27T01:06:53.618Z,8.10
2018-04-27T01:09:21.129Z,8.00
2018-04-27T01:11:48.622Z,8.00
2018-04-27T01:14:16.156Z,8.00
2018-04-27T01:16:43.654Z,8.00
2018-04-27T01:19:11.159Z,8.10
2018-04-27T01:21:38.862Z,8.20
2018-04-27T01:24:06.365Z,8.10
2018-04-27T01:26:34.077Z,8.20
2018-04-27T01:29:01.607Z,8.20
2018-04-27T01:31:29.118Z,8.10
2018-04-27T01:33:56.754Z,8.20
2018-04-27T01:36:24.254Z,8.20
2018-04-27T01:38:52.550Z,8.20
2018-04-27T01:41:20.082Z,8.20
2018-04-27T01:43:47.582Z,8.20
2018-04-27T01:46:15.653Z,8.30
2018-04-27T01:48:44.257Z,8.30
2018-04-27T01:51:11.770Z,8.20
2018-04-27T01:53:39.274Z,8.20
2018-04-27T01:56:06.938Z,8.20
2018-04-27T01:58:34.435Z,8.30
2018-04-27T02:01:02.667Z,8.20
2018-04-27T02:03:30.397Z,8.20
2018-04-27T02:05:57.992Z,8.10
2018-04-27T02:08:25.490Z,8.20
2018-04-27T02:10:53.182Z,8.00
2018-04-27T02:13:20.675Z,8.00
2018-04-27T02:15:48.183Z,8.00
2018-04-27T02:18:15.673Z,7.90
2018-04-27T02:20:43.341Z,7.90
2018-04-27T02:23:10.841Z,7.90
2018-04-27T02:25:38.565Z,7.90
2018-04-27T02:28:06.062Z,7.90
2018-04-27T02:30:33.800Z,7.80
2018-04-27T02:33:01.903Z,7.90
2018-04-27T02:35:29.407Z,8.00
2018-04-27T02:37:57.038Z,8.00
2018-04-27T02:40:25.021Z,8.00
2018-04-27T02:42:53.323Z,8.00
2018-04-27T02:45:21.477Z,8.00
2018-04-27T02:47:49.077Z,8.00
2018-04-27T02:50:16.585Z,7.90
2018-04-27T02:52:44.091Z,7.90
2018-04-27T02:55:12.257Z,8.00
2018-04-27T02:57:39.763Z,7.90
2018-04-27T03:00:07.377Z,7.90
2018-04-27T03:02:35.018Z,7.90
2018-04-27T03:05:02.641Z,7.90
2018-04-27T03:07:30.252Z,7.80
2018-04-27T03:09:57.761Z,8.30
2018-04-27T03:12:25.472Z,7.80
2018-04-27T03:14:53.950Z,7.80
2018-04-27T03:17:21.783Z,7.80
2018-04-27T03:19:49.361Z,7.80
2018-04-27T03:22:17.126Z,7.80
2018-04-27T03:24:44.686Z,7.80
2018-04-27T03:27:12.333Z,7.80
2018-04-27T03:29:39.857Z,7.80
2018-04-27T03:32:07.540Z,7.80
2018-04-27T03:34:35.342Z,7.80
2018-04-27T03:37:03.100Z,7.70
2018-04-27T03:39:30.594Z,7.70
2018-04-27T03:41:58.101Z,7.80
2018-04-27T03:44:25.617Z,7.80
2018-04-27T03:46:53.886Z,7.80
2018-04-27T03:49:22.221Z,7.80
2018-04-27T03:51:49.780Z,7.80
2018-04-27T03:54:17.421Z,7.90
2018-04-27T03:56:45.343Z,7.90
2018-04-27T03:59:13.118Z,7.90
2018-04-27T04:01:53.290Z,7.90
2018-04-27T04:04:32.698Z,7.80
2018-04-27T04:07:00.205Z,7.80
2018-04-27T04:09:27.705Z,7.80
2018-04-27T04:11:55.411Z,7.80
2018-04-27T04:14:22.909Z,7.70
2018-04-27T04:16:50.422Z,7.70
2018-04-27T04:19:17.925Z,7.70
2018-04-27T04:21:45.477Z,7.80
2018-04-27T04:24:12.988Z,7.80
2018-04-27T04:26:40.497Z,7.90
2018-04-27T04:29:08.004Z,7.80
2018-04-27T04:31:35.511Z,7.80
2018-04-27T04:34:03.017Z,7.80
2018-04-27T04:36:30.622Z,7.80
2018-04-27T04:38:58.128Z,7.90
2018-04-27T04:41:25.843Z,7.90
2018-04-27T04:43:53.334Z,7.90
2018-04-27T04:46:20.852Z,8.00
2018-04-27T04:48:48.537Z,8.10
2018-04-27T04:51:16.054Z,8.10
2018-04-27T04:53:43.549Z,8.10
2018-04-27T04:56:11.163Z,8.10
2018-04-27T04:58:38.657Z,8.20
2018-04-27T05:01:06.193Z,8.10
2018-04-27T05:03:33.693Z,8.10
2018-04-27T05:06:01.193Z,8.00
2018-04-27T05:08:28.784Z,7.90
2018-04-27T05:10:56.290Z,7.90
2018-04-27T05:13:23.965Z,7.90
2018-04-27T05:15:51.769Z,7.90
2018-04-27T05:18:20.450Z,7.80
2018-04-27T05:20:47.947Z,7.80
2018-04-27T05:23:15.676Z,7.80
2018-04-27T05:25:43.178Z,7.90
2018-04-27T05:28:10.891Z,8.00
2018-04-27T05:30:38.654Z,8.10
2018-04-27T05:33:06.290Z,8.10
2018-04-27T05:35:33.876Z,8.10
2018-04-27T05:38:01.636Z,8.20
2018-04-27T05:40:29.145Z,9.10
2018-04-27T05:42:56.854Z,9.80
2018-04-27T05:45:24.624Z,10.20
2018-04-27T05:47:52.134Z,10.90
2018-04-27T05:50:19.639Z,11.10
2018-04-27T05:52:47.155Z,10.70
2018-04-27T05:55:14.767Z,11.30
2018-04-27T05:57:42.290Z,11.80
2018-04-27T06:00:09.943Z,11.70
2018-04-27T06:02:37.461Z,11.30
2018-04-27T06:05:04.963Z,11.90
2018-04-27T06:07:32.650Z,12.70
2018-04-27T06:10:00.463Z,12.20
2018-04-27T06:12:27.947Z,12.20
2018-04-27T06:14:55.639Z,12.30
2018-04-27T06:17:23.402Z,12.10
2018-04-27T06:19:50.913Z,12.10
2018-04-27T06:22:18.467Z,12.40
2018-04-27T06:24:46.037Z,12.70
2018-04-27T06:27:14.274Z,11.70
2018-04-27T06:29:41.779Z,11.70
2018-04-27T06:32:09.339Z,11.30
2018-04-27T06:34:36.850Z,11.00
2018-04-27T06:37:04.364Z,10.10
2018-04-27T06:39:31.916Z,9.40
2018-04-27T06:41:59.418Z,9.10
2018-04-27T06:44:26.936Z,8.90
2018-04-27T06:46:54.436Z,8.90
2018-04-27T06:49:21.943Z,9.00
2018-04-27T06:51:49.629Z,9.10
2018-04-27T06:54:17.405Z,9.20
2018-04-27T06:56:45.162Z,9.30
2018-04-27T06:59:12.898Z,9.10
2018-04-27T07:01:40.367Z,9.10
2018-04-27T07:04:08.155Z,9.10
2018-04-27T07:06:35.658Z,9.10
2018-04-27T07:09:03.166Z,9.10
2018-04-27T07:11:30.699Z,9.10
2018-04-27T07:13:59.138Z,9.20
2018-04-27T07:16:26.646Z,9.20
2018-04-27T07:18:54.413Z,9.40
2018-04-27T07:21:22.066Z,9.60
2018-04-27T07:23:49.646Z,9.50
2018-04-27T07:26:17.152Z,9.60
2018-04-27T07:28:45.019Z,9.80
2018-04-27T07:31:12.513Z,9.80
2018-04-27T07:33:40.075Z,9.60
2018-04-27T07:36:07.860Z,9.70
2018-04-27T07:38:35.601Z,9.60
2018-04-27T07:41:03.165Z,9.80
2018-04-27T07:43:30.737Z,10.00
2018-04-27T07:45:58.249Z,10.00
2018-04-27T07:48:25.916Z,10.10
2018-04-27T07:50:53.495Z,10.00
2018-04-27T07:53:21.079Z,10.00
2018-04-27T07:55:48.527Z,10.30
2018-04-27T07:58:16.042Z,10.30
2018-04-27T08:00:43.541Z,10.50
2018-04-27T08:03:11.062Z,10.50
2018-04-27T08:05:39.062Z,10.60
2018-04-27T08:08:06.575Z,10.70
2018-04-27T08:10:34.082Z,10.80
2018-04-27T08:13:01.889Z,10.90
2018-04-27T08:15:29.398Z,10.90
2018-04-27T08:17:57.049Z,11.00
2018-04-27T08:20:28.495Z,10.90
2018-04-27T08:22:56.267Z,10.90
2018-04-27T08:25:24.746Z,11.00
2018-04-27T08:27:52.251Z,11.30
2018-04-27T08:30:20.846Z,11.30
2018-04-27T08:32:48.341Z,11.30
2018-04-27T08:35:15.846Z,11.40
2018-04-27T08:37:44.122Z,11.70
2018-04-27T08:40:11.633Z,11.70
2018-04-27T08:42:39.146Z,11.80
2018-04-27T08:45:06.654Z,12.00
2018-04-27T08:47:34.209Z,11.80
2018-04-27T08:50:01.969Z,11.90
2018-04-27T08:52:29.477Z,12.00
2018-04-27T08:54:57.193Z,11.90
2018-04-27T08:57:24.702Z,11.90
2018-04-27T08:59:52.214Z,12.00
2018-04-27T09:02:19.722Z,12.10
2018-04-27T09:04:47.234Z,12.00
2018-04-27T09:07:14.758Z,12.00
2018-04-27T09:09:42.554Z,12.10
2018-04-27T09:12:10.058Z,12.20
2018-04-27T09:14:37.577Z,12.10
2018-04-27T09:17:05.116Z,12.10
2018-04-27T09:19:33.042Z,12.20
2018-04-27T09:22:00.557Z,12.30
2018-04-27T09:24:28.213Z,12.20
2018-04-27T09:26:55.725Z,12.20
2018-04-27T09:29:23.230Z,12.30
2018-04-27T09:31:50.734Z,12.40
2018-04-27T09:34:18.339Z,12.50
2018-04-27T09:36:46.105Z,12.70
2018-04-27T09:39:13.626Z,12.80
2018-04-27T09:41:41.335Z,12.60
2018-04-27T09:44:08.841Z,12.70
2018-04-27T09:46:36.557Z,12.80
2018-04-27T09:49:04.076Z,12.70
2018-04-27T09:51:31.580Z,12.80
2018-04-27T09:53:59.197Z,12.80
2018-04-27T09:56:26.718Z,12.80
2018-04-27T09:58:54.443Z,13.00
2018-04-27T10:01:23.129Z,13.00
2018-04-27T10:03:50.668Z,13.30
2018-04-27T10:06:18.349Z,13.20
2018-04-27T10:08:45.853Z,13.00
2018-04-27T10:11:14.080Z,13.10
2018-04-27T10:13:41.638Z,13.30
2018-04-27T10:16:09.421Z,13.60
2018-04-27T10:18:36.937Z,13.50
2018-04-27T10:21:04.599Z,13.30
2018-04-27T10:23:32.112Z,13.50
2018-04-27T10:25:59.847Z,13.50
2018-04-27T10:28:27.613Z,13.60
2018-04-27T10:30:55.413Z,13.50
2018-04-27T10:33:23.138Z,13.40
2018-04-27T10:35:50.894Z,13.20
2018-04-27T10:38:18.818Z,13.20
2018-04-27T10:40:46.336Z,13.20
2018-04-27T10:43:13.878Z,13.20
2018-04-27T10:45:41.662Z,13.00
2018-04-27T10:48:09.172Z,13.00
2018-04-27T10:50:36.678Z,13.00
2018-04-27T10:53:04.354Z,13.20
2018-04-27T10:55:31.900Z,13.30
2018-04-27T10:57:59.416Z,13.40
2018-04-27T11:00:27.037Z,13.60
2018-04-27T11:02:54.531Z,13.70
2018-04-27T11:05:22.041Z,13.80
2018-04-27T11:07:49.577Z,14.00
2018-04-27T11:10:17.066Z,13.80
2018-04-27T11:12:44.769Z,13.70
2018-04-27T11:15:12.278Z,13.80
2018-04-27T11:17:39.781Z,13.80
2018-04-27T11:20:07.586Z,13.80
2018-04-27T11:22:35.353Z,13.80
2018-04-27T11:25:03.122Z,13.80
2018-04-27T11:27:30.647Z,13.80
2018-04-27T11:29:58.150Z,13.80
2018-04-27T11:32:26.417Z,13.70
2018-04-27T11:34:53.933Z,13.60
2018-04-27T11:37:21.605Z,13.70
2018-04-27T11:39:49.123Z,13.90
2018-04-27T11:42:16.621Z,14.10
2018-04-27T11:44:44.140Z,14.10
2018-04-27T11:47:11.637Z,14.30
2018-04-27T11:49:39.148Z,14.10
2018-04-27T11:52:06.741Z,14.00
2018-04-27T11:54:34.481Z,14.10
2018-04-27T11:57:02.201Z,13.90
2018-04-27T11:59:29.706Z,13.80
2018-04-27T12:01:57.214Z,13.90
2018-04-27T12:04:24.717Z,14.10
2018-04-27T12:06:52.230Z,14.30
2018-04-27T12:09:19.740Z,14.40
2018-04-27T12:11:47.558Z,14.50
2018-04-27T12:14:15.653Z,14.40
2018-04-27T12:16:43.182Z,14.10
2018-04-27T12:19:10.687Z,14.00
2018-04-27T12:21:38.262Z,14.10
2018-04-27T12:24:06.046Z,14.10
2018-04-27T12:26:33.827Z,14.20
2018-04-27T12:29:01.323Z,14.40
2018-04-27T12:31:29.843Z,14.50
2018-04-27T12:33:57.245Z,14.60
2018-04-27T12:36:26.302Z,14.70
2018-04-27T12:38:53.822Z,14.70
2018-04-27T12:41:21.326Z,14.70
2018-04-27T12:43:48.845Z,14.80
2018-04-27T12:46:16.357Z,14.70
2018-04-27T12:48:43.866Z,14.50
2018-04-27T12:51:11.370Z,14.50
2018-04-27T12:53:38.906Z,14.50
2018-04-27T12:56:06.669Z,14.30
2018-04-27T12:58:34.430Z,14.40
2018-04-27T13:01:01.956Z,14.80
2018-04-27T13:03:29.656Z,15.10
2018-04-27T13:05:57.149Z,15.50
2018-04-27T13:08:24.885Z,15.70
2018-04-27T13:10:52.408Z,15.50
2018-04-27T13:13:20.005Z,15.30
2018-04-27T13:15:47.527Z,15.20
2018-04-27T13:18:15.035Z,15.10
2018-04-27T13:20:42.539Z,15.10
2018-04-27T13:23:10.200Z,15.00
2018-04-27T13:25:37.759Z,15.00
2018-04-27T13:28:05.458Z,14.90
2018-04-27T13:30:33.388Z,14.70
2018-04-27T13:33:01.063Z,14.70
2018-04-27T13:35:29.551Z,14.80
2018-04-27T13:37:57.062Z,14.90
2018-04-27T13:40:24.564Z,15.00
2018-04-27T13:42:52.090Z,15.10
2018-04-27T13:45:19.597Z,15.20
2018-04-27T13:47:47.242Z,15.50
2018-04-27T13:50:14.753Z,15.90
2018-04-27T13:52:42.465Z,16.10
2018-04-27T13:55:09.961Z,16.10
2018-04-27T13:57:37.483Z,16.00
2018-04-27T14:00:05.020Z,15.90
2018-04-27T14:02:32.610Z,15.80
2018-04-27T14:05:00.124Z,15.60
2018-04-27T14:07:27.835Z,15.60
2018-04-27T14:09:55.614Z,15.70
2018-04-27T14:12:23.354Z,15.60
2018-04-27T14:14:51.117Z,15.60
2018-04-27T14:17:18.851Z,15.50
2018-04-27T14:19:46.361Z,15.60
2018-04-27T14:22:13.883Z,15.70
2018-04-27T14:24:41.542Z,15.80
2018-04-27T14:27:09.046Z,15.80
2018-04-27T14:29:36.770Z,15.90
2018-04-27T14:32:04.285Z,16.30
2018-04-27T14:34:31.987Z,16.80
2018-04-27T14:36:59.751Z,17.00
2018-04-27T14:39:27.516Z,17.20
2018-04-27T14:41:55.028Z,17.20
2018-04-27T14:44:23.358Z,17.10
2018-04-27T14:46:50.889Z,17.10
2018-04-27T14:49:18.579Z,16.70
2018-04-27T14:51:46.091Z,16.40
2018-04-27T14:54:13.804Z,16.20
2018-04-27T14:56:41.561Z,16.00
2018-04-27T14:59:09.651Z,16.00
2018-04-27T15:01:37.170Z,16.00
2018-04-27T15:04:04.840Z,16.10
2018-04-27T15:06:32.641Z,16.00
2018-04-27T15:09:00.422Z,15.90
2018-04-27T15:11:27.947Z,16.20
2018-04-27T15:13:55.500Z,16.40
2018-04-27T15:16:23.019Z,16.30
2018-04-27T15:18:50.518Z,16.20
2018-04-27T15:21:18.021Z,16.10
2018-04-27T15:23:45.905Z,15.90
2018-04-27T15:26:13.774Z,15.80
2018-04-27T15:28:41.403Z,15.80
2018-04-27T15:31:09.706Z,15.80
2018-04-27T15:33:37.398Z,15.70
2018-04-27T15:36:06.898Z,15.90
2018-04-27T15:38:34.390Z,15.80
2018-04-27T15:41:01.914Z,15.80
2018-04-27T15:43:29.433Z,15.70
2018-04-27T15:45:57.139Z,15.60
2018-04-27T15:48:24.662Z,15.60
2018-04-27T15:50:52.350Z,15.50
2018-04-27T15:53:19.894Z,15.30
2018-04-27T15:55:47.617Z,15.20
2018-04-27T15:58:15.378Z,15.40
2018-04-27T16:00:42.953Z,15.50
2018-04-27T16:03:10.575Z,15.70
2018-04-27T16:05:40.474Z,15.60
2018-04-27T16:08:08.613Z,15.50
2018-04-27T16:10:36.117Z,15.70
2018-04-27T16:13:09.594Z,15.60
2018-04-27T16:15:37.353Z,15.70
2018-04-27T16:18:04.874Z,15.60
2018-04-27T16:20:32.483Z,15.50
2018-04-27T16:22:59.986Z,15.50
2018-04-27T16:25:27.787Z,15.40
2018-04-27T16:27:55.300Z,15.30
2018-04-27T16:30:23.004Z,15.30
2018-04-27T16:32:50.523Z,15.20
2018-04-27T16:35:18.025Z,15.20
2018-04-27T16:37:45.539Z,15.10
2018-04-27T16:40:14.074Z,15.10
2018-04-27T16:42:41.582Z,15.10
2018-04-27T16:45:09.083Z,15.00
2018-04-27T16:47:36.854Z,15.10
2018-04-27T16:50:04.514Z,15.20
2018-04-27T16:52:32.040Z,15.10
2018-04-27T16:55:00.129Z,15.10
2018-04-27T16:57:27.804Z,15.10
2018-04-27T16:59:55.574Z,15.10
2018-04-27T17:02:23.087Z,15.10
2018-04-27T17:04:50.594Z,15.00
2018-04-27T17:07:18.118Z,14.90
2018-04-27T17:09:45.699Z,14.90
2018-04-27T17:12:13.231Z,14.90
2018-04-27T17:14:40.739Z,14.90
2018-04-27T17:17:08.334Z,14.90
2018-04-27T17:19:35.835Z,14.80
2018-04-27T17:22:03.341Z,14.80
2018-04-27T17:24:30.867Z,14.90
2018-04-27T17:26:58.510Z,14.90
2018-04-27T17:29:26.044Z,14.90
2018-04-27T17:31:53.746Z,14.90
2018-04-27T17:34:21.370Z,14.90
2018-04-27T17:36:49.032Z,14.90
2018-04-27T17:39:16.709Z,14.90
2018-04-27T17:41:44.223Z,15.00
2018-04-27T17:44:12.251Z,14.90
2018-04-27T17:46:39.936Z,14.80
2018-04-27T17:49:07.486Z,14.80
2018-04-27T17:51:35.222Z,14.80
2018-04-27T17:54:02.996Z,14.70
2018-04-27T17:56:30.525Z,14.70
2018-04-27T17:58:58.212Z,14.80
2018-04-27T18:01:27.627Z,14.90
2018-04-27T18:03:55.154Z,14.80
2018-04-27T18:06:22.670Z,14.70
2018-04-27T18:08:50.188Z,14.70
2018-04-27T18:11:17.701Z,14.70
2018-04-27T18:13:45.210Z,14.60
2018-04-27T18:16:12.710Z,14.60
2018-04-27T18:18:40.319Z,14.50
2018-04-27T18:21:07.855Z,14.40
2018-04-27T18:23:35.357Z,14.40
2018-04-27T18:26:02.870Z,14.40
2018-04-27T18:28:30.377Z,14.40
2018-04-27T18:30:57.908Z,14.30
2018-04-27T18:33:25.752Z,14.20
2018-04-27T18:35:53.185Z,14.20
2018-04-27T18:38:20.902Z,14.10
2018-04-27T18:40:48.425Z,14.10
2018-04-27T18:43:15.926Z,14.00
2018-04-27T18:45:43.573Z,14.00
2018-04-27T18:48:11.078Z,14.00
2018-04-27T18:50:38.593Z,14.00
2018-04-27T18:53:06.141Z,13.90
2018-04-27T18:55:33.656Z,13.90
2018-04-27T18:58:01.201Z,13.90
2018-04-27T19:00:41.314Z,13.70
2018-04-27T19:03:09.038Z,13.60
2018-04-27T19:05:36.575Z,13.50
2018-04-27T19:08:06.336Z,13.50
2018-04-27T19:10:37.566Z,13.50
2018-04-27T19:13:05.431Z,13.40
2018-04-27T19:15:33.049Z,13.30
2018-04-27T19:18:05.446Z,13.20
2018-04-27T19:20:45.878Z,13.10
2018-04-27T19:23:14.138Z,13.10
2018-04-27T19:25:57.345Z,13.00
2018-04-27T19:28:25.029Z,12.80
2018-04-27T19:30:52.773Z,12.80
2018-04-27T19:33:20.547Z,12.90
2018-04-27T19:35:48.649Z,13.00
2018-04-27T19:38:16.714Z,12.90
2018-04-27T19:40:44.227Z,13.00
2018-04-27T19:43:11.754Z,13.00
2018-04-27T19:45:39.353Z,13.00
2018-04-27T19:48:07.049Z,13.00
2018-04-27T19:50:34.570Z,13.00
2018-04-27T19:53:02.070Z,13.20
2018-04-27T19:55:29.578Z,13.20
2018-04-27T19:57:57.872Z,13.20
2018-04-27T20:00:26.245Z,13.10
2018-04-27T20:02:53.778Z,13.00
2018-04-27T20:05:21.297Z,13.00
2018-04-27T20:07:49.590Z,13.10
2018-04-27T20:10:18.514Z,13.10
2018-04-27T20:12:46.026Z,13.10
2018-04-27T20:15:13.538Z,13.10
2018-04-27T20:17:43.535Z,12.90
2018-04-27T20:20:15.002Z,12.80
2018-04-27T20:22:43.494Z,12.70
2018-04-27T20:25:11.866Z,12.60
2018-04-27T20:27:39.630Z,12.60
2018-04-27T20:30:10.070Z,12.50
2018-04-27T20:32:37.622Z,12.50
2018-04-27T20:35:09.934Z,12.50
2018-04-27T20:37:37.437Z,12.40
2018-04-27T20:40:05.221Z,12.40
2018-04-27T20:42:32.729Z,12.40
2018-04-27T20:47:54.226Z,12.30
2018-04-27T20:50:27.252Z,12.40
2018-04-27T20:53:02.496Z,12.50
2018-04-27T20:55:31.729Z,12.60
2018-04-27T20:57:59.239Z,12.60
2018-04-27T21:00:28.329Z,12.60
2018-04-27T21:02:55.852Z,12.60
2018-04-27T21:05:23.398Z,12.70
2018-04-27T21:07:50.917Z,12.70
2018-04-27T21:10:18.437Z,12.60
2018-04-27T21:12:47.825Z,12.60
2018-04-27T21:15:15.379Z,12.50
2018-04-27T21:17:45.722Z,12.40
2018-04-27T21:20:13.986Z,12.40
2018-04-27T21:22:41.486Z,12.30
2018-04-27T21:25:09.006Z,12.30
2018-04-27T21:27:37.401Z,12.20
2018-04-27T21:30:05.689Z,12.10
2018-04-27T21:32:33.199Z,12.10
2018-04-27T21:35:00.863Z,12.10
2018-04-27T21:37:28.375Z,12.10
2018-04-27T21:39:55.884Z,12.10
2018-04-27T21:42:32.243Z,12.20
2018-04-27T21:44:59.906Z,12.00
2018-04-27T21:47:29.318Z,11.90
2018-04-27T21:49:57.578Z,11.80
2018-04-27T21:52:27.685Z,11.80
2018-04-27T21:54:55.881Z,11.80
2018-04-27T22:00:21.809Z,11.60
2018-04-27T22:02:49.993Z,11.60
2018-04-27T22:08:17.602Z,11.60
2018-04-27T22:10:45.834Z,11.50
2018-04-27T22:13:22.518Z,11.50
2018-04-27T22:15:50.170Z,11.50
2018-04-27T22:18:17.854Z,11.50
2018-04-27T22:20:46.154Z,11.40
2018-04-27T22:23:16.542Z,11.40
2018-04-27T22:25:44.044Z,11.30
2018-04-27T22:28:11.563Z,11.30
2018-04-27T22:30:48.546Z,11.30
2018-04-27T22:33:31.861Z,11.30
2018-04-27T22:36:04.232Z,11.20
2018-04-27T22:38:38.390Z,11.20
2018-04-27T22:41:06.205Z,11.10
2018-04-27T22:43:36.413Z,11.00
2018-04-27T22:46:06.957Z,11.00
2018-04-27T22:48:39.045Z,11.10
2018-04-27T22:51:09.246Z,11.10
2018-04-27T22:56:54.111Z,10.90
2018-04-27T22:59:25.220Z,10.80
2018-04-27T23:01:54.374Z,10.90
2018-04-27T23:04:22.130Z,10.80
2018-04-27T23:06:50.511Z,10.80
2018-04-27T23:09:18.113Z,10.80
2018-04-27T23:11:45.605Z,10.90
2018-04-27T23:17:12.265Z,10.70
2018-04-27T23:19:41.673Z,10.70
2018-04-27T23:22:22.868Z,10.60
2018-04-27T23:24:50.398Z,10.60
2018-04-27T23:27:17.882Z,10.50
2018-04-27T23:29:45.408Z,10.60
2018-04-27T23:32:12.990Z,10.60
2018-04-27T23:34:40.774Z,10.70
2018-04-27T23:37:08.528Z,10.70
2018-04-27T23:39:36.282Z,10.60
2018-04-27T23:42:03.793Z,10.70
2018-04-27T23:44:31.297Z,10.70
2018-04-27T23:46:58.811Z,10.70
2018-04-27T23:49:27.210Z,10.80
2018-04-27T23:51:54.722Z,10.80
2018-04-27T23:54:22.258Z,10.90
2018-04-27T23:56:50.034Z,10.90
2018-04-27T23:59:20.063Z,10.90
